createdAt,value
2022-11-04T00:05:01.002Z,84.16
2022-11-04T00:10:02.885Z,84.26
2022-11-04T00:15:25.558Z,84.21
2022-11-04T00:20:46.115Z,83.99
2022-11-04T00:26:06.520Z,83.89
2022-11-04T00:31:28.678Z,83.38
2022-11-04T00:36:30.500Z,82.67
2022-11-04T00:41:32.392Z,82.39
2022-11-04T00:46:34.837Z,82.11
2022-11-04T00:51:36.700Z,81.83
2022-11-04T00:56:39.575Z,81.89
2022-11-04T01:01:42.218Z,81.72
2022-11-04T01:06:44.695Z,81.75
2022-11-04T01:11:46.648Z,81.56
2022-11-04T01:16:52.026Z,81.50
2022-11-04T01:21:53.908Z,81.81
2022-11-04T01:26:55.855Z,81.70
2022-11-04T01:31:57.776Z,81.79
2022-11-04T01:36:59.627Z,81.73
2022-11-04T01:42:01.617Z,81.63
2022-11-04T01:47:04.618Z,81.69
2022-11-04T01:52:15.410Z,81.42
2022-11-04T01:57:25.273Z,81.27
2022-11-04T02:02:27.357Z,81.06
2022-11-04T02:07:29.949Z,81.03
2022-11-04T02:12:50.133Z,81.08
2022-11-04T02:18:10.956Z,81.29
2022-11-04T02:23:48.800Z,81.36
2022-11-04T02:29:18.842Z,81.51
2022-11-04T02:34:26.010Z,81.65
2022-11-04T02:39:51.344Z,81.60
2022-11-04T02:45:21.937Z,81.67
2022-11-04T02:50:33.675Z,81.75
2022-11-04T02:55:43.303Z,81.79
2022-11-04T03:00:47.097Z,81.88
2022-11-04T03:05:52.709Z,81.72
2022-11-04T03:10:59.427Z,81.66
2022-11-04T03:16:09.449Z,81.61
2022-11-04T03:21:15.529Z,81.44
2022-11-04T03:26:32.710Z,81.35
2022-11-04T03:31:54.527Z,80.97
2022-11-04T03:36:57.312Z,81.16
2022-11-04T03:42:20.338Z,80.87
2022-11-04T03:47:25.982Z,80.99
2022-11-04T03:52:27.866Z,81.09
2022-11-04T03:57:51.240Z,81.25
2022-11-04T04:03:06.734Z,81.50
2022-11-04T04:08:34.607Z,81.58
2022-11-04T04:13:36.551Z,81.68
2022-11-04T04:18:55.785Z,81.83
2022-11-04T04:24:24.678Z,81.96
2022-11-04T04:29:29.513Z,82.10
2022-11-04T04:34:33.557Z,82.18
2022-11-04T04:40:00.839Z,82.29
2022-11-04T04:45:05.580Z,82.35
2022-11-04T04:50:09.195Z,82.23
2022-11-04T04:55:12.535Z,82.12
2022-11-04T05:00:19.986Z,82.04
2022-11-04T05:05:21.976Z,82.13
2022-11-04T05:10:26.089Z,82.35
2022-11-04T05:15:31.406Z,82.40
2022-11-04T05:20:34.562Z,82.61
2022-11-04T05:25:36.544Z,82.85
2022-11-04T05:30:38.473Z,83.06
2022-11-04T05:35:40.443Z,83.18
2022-11-04T05:40:42.341Z,83.40
2022-11-04T05:45:44.144Z,83.52
2022-11-04T05:50:45.987Z,83.61
2022-11-04T05:55:47.817Z,83.69
2022-11-04T06:00:49.679Z,83.83
2022-11-04T06:05:51.510Z,83.88
2022-11-04T06:10:53.411Z,83.79
2022-11-04T06:15:55.263Z,83.85
2022-11-04T06:21:15.377Z,83.77
2022-11-04T06:26:18.313Z,83.68
2022-11-04T06:31:20.626Z,83.77
2022-11-04T06:36:22.485Z,83.61
2022-11-04T06:41:25.113Z,83.48
2022-11-04T06:46:40.256Z,83.11
2022-11-04T06:51:42.162Z,83.01
2022-11-04T06:56:45.075Z,82.81
2022-11-04T07:01:49.316Z,82.69
2022-11-04T07:06:51.302Z,82.83
2022-11-04T07:11:53.104Z,82.51
2022-11-04T07:16:54.926Z,82.39
2022-11-04T07:21:58.019Z,82.21
2022-11-04T07:32:07.601Z,82.18
2022-11-04T07:37:09.851Z,82.09
2022-11-04T07:42:11.743Z,82.04
2022-11-04T07:47:14.601Z,81.78
2022-11-04T07:52:16.830Z,81.84
2022-11-04T07:57:18.681Z,81.84
2022-11-04T08:02:25.786Z,81.64
2022-11-04T08:07:29.561Z,81.54
2022-11-04T08:12:32.495Z,81.13
2022-11-04T08:17:34.369Z,80.93
2022-11-04T08:22:36.555Z,80.66
2022-11-04T08:27:38.368Z,80.36
2022-11-04T08:32:40.312Z,80.23
2022-11-04T08:37:42.197Z,80.19
2022-11-04T08:42:44.013Z,80.13
2022-11-04T08:47:45.818Z,79.90
2022-11-04T08:52:48.257Z,79.68
2022-11-04T08:57:51.288Z,79.40
2022-11-04T09:02:53.187Z,79.18
2022-11-04T09:07:55.672Z,79.08
2022-11-04T09:12:57.570Z,78.94
2022-11-04T09:17:59.530Z,78.82
2022-11-04T09:23:01.564Z,78.71
2022-11-04T09:28:04.783Z,78.76
2022-11-04T09:33:06.796Z,78.71
2022-11-04T09:38:08.964Z,78.37
2022-11-04T09:43:39.730Z,78.22
2022-11-04T09:48:53.808Z,77.89
2022-11-04T09:54:02.832Z,77.90
2022-11-04T09:59:06.445Z,77.86
2022-11-04T10:04:33.358Z,77.52
2022-11-04T10:09:43.380Z,77.38
2022-11-04T10:14:50.964Z,77.60
2022-11-04T10:20:18.072Z,77.55
2022-11-04T10:25:28.179Z,77.44
2022-11-04T10:30:32.228Z,76.72
2022-11-04T10:35:42.803Z,76.61
2022-11-04T10:40:51.333Z,76.30
2022-11-04T10:46:22.659Z,76.26
2022-11-04T10:51:24.776Z,76.49
2022-11-04T10:56:42.600Z,76.86
2022-11-04T11:01:56.805Z,77.11
2022-11-04T11:07:00.594Z,76.90
2022-11-04T11:12:44.122Z,76.93
2022-11-04T11:17:34.488Z,77.04
2022-11-04T11:22:41.704Z,77.07
2022-11-04T11:27:49.938Z,76.64
2022-11-04T11:33:01.397Z,76.62
2022-11-04T11:38:06.055Z,76.40
2022-11-04T11:43:21.320Z,76.90
2022-11-04T11:48:29.978Z,76.93
2022-11-04T11:53:34.473Z,76.28
2022-11-04T12:09:42.077Z,74.86
2022-11-04T12:15:07.081Z,75.13
2022-11-04T12:21:00.115Z,75.48
2022-11-04T12:26:20.256Z,75.25
2022-11-04T12:31:45.363Z,75.43
2022-11-04T12:37:01.928Z,75.24
2022-11-04T12:42:20.527Z,75.48
2022-11-04T12:47:38.828Z,75.91
2022-11-04T12:52:54.264Z,76.35
2022-11-04T12:58:17.559Z,76.96
2022-11-04T13:03:30.320Z,77.08
2022-11-04T13:08:41.981Z,76.74
2022-11-04T13:13:44.106Z,76.80
2022-11-04T13:18:48.026Z,77.31
2022-11-04T13:23:58.144Z,77.71
2022-11-04T13:29:09.121Z,77.83
2022-11-04T13:34:48.051Z,77.80
2022-11-04T13:39:57.718Z,77.55
2022-11-04T13:45:14.955Z,77.78
2022-11-04T13:50:37.016Z,77.95
2022-11-04T13:55:50.393Z,78.22
2022-11-04T14:01:14.010Z,78.32
2022-11-04T14:06:16.040Z,78.93
2022-11-04T14:11:17.843Z,79.14
2022-11-04T14:16:25.485Z,79.38
2022-11-04T14:21:29.524Z,79.61
2022-11-04T14:26:48.616Z,79.42
2022-11-04T14:31:53.183Z,79.64
2022-11-04T14:37:05.455Z,79.44
2022-11-04T14:42:14.004Z,79.75
2022-11-04T14:47:22.055Z,79.97
2022-11-04T14:52:35.165Z,80.19
2022-11-04T14:57:42.456Z,80.33
2022-11-04T15:02:44.350Z,80.40
2022-11-04T15:07:46.239Z,80.56
2022-11-04T15:12:52.036Z,80.81
2022-11-04T15:18:01.843Z,81.04
2022-11-04T15:23:06.859Z,81.48
2022-11-04T15:28:18.061Z,81.87
2022-11-04T15:33:20.012Z,82.24
2022-11-04T15:38:24.324Z,82.65
2022-11-04T15:43:26.234Z,83.03
2022-11-04T15:48:33.818Z,83.39
2022-11-04T15:53:50.573Z,83.59
2022-11-04T15:58:54.536Z,83.84
2022-11-04T16:04:00.470Z,83.99
2022-11-04T16:09:25.940Z,84.23
2022-11-04T16:14:30.169Z,84.50
2022-11-04T16:19:32.491Z,84.77
2022-11-04T16:24:37.987Z,84.96
2022-11-04T16:29:45.213Z,85.24
2022-11-04T16:34:52.362Z,85.45
2022-11-04T16:39:54.403Z,85.53
2022-11-04T16:45:02.640Z,85.47
2022-11-04T16:50:13.225Z,85.55
2022-11-04T16:55:15.941Z,85.83
2022-11-04T17:00:20.963Z,85.83
2022-11-04T17:05:23.106Z,85.93
2022-11-04T17:10:27.965Z,86.16
2022-11-04T17:15:29.783Z,86.26
2022-11-04T17:20:32.043Z,86.32
2022-11-04T17:25:33.897Z,86.47
2022-11-04T17:30:36.077Z,86.56
2022-11-04T17:35:38.419Z,86.72
2022-11-04T17:40:59.182Z,87.09
2022-11-04T17:46:20.956Z,87.38
2022-11-04T17:51:23.114Z,87.62
2022-11-04T17:56:25.644Z,87.91
2022-11-04T18:01:28.148Z,88.15
2022-11-04T18:06:32.593Z,88.27
2022-11-04T18:11:53.123Z,88.53
2022-11-04T18:16:55.110Z,88.72
2022-11-04T18:21:57.407Z,88.65
2022-11-04T18:26:59.862Z,88.88
2022-11-04T18:32:01.778Z,89.03
2022-11-04T18:37:03.794Z,88.99
2022-11-04T18:42:05.702Z,89.03
2022-11-04T18:47:07.495Z,89.10
2022-11-04T18:52:09.330Z,89.50
2022-11-04T18:57:12.187Z,89.92
2022-11-04T19:02:19.839Z,89.98
2022-11-04T19:07:21.665Z,90.26
2022-11-04T19:12:42.100Z,90.25
2022-11-04T19:17:44.035Z,90.42
2022-11-04T19:22:46.129Z,90.84
2022-11-04T19:28:00.069Z,90.80
2022-11-04T19:33:10.886Z,91.04
2022-11-04T19:38:12.986Z,91.43
2022-11-04T19:43:15.199Z,91.31
2022-11-04T19:48:18.976Z,91.67
2022-11-04T19:53:21.134Z,91.65
2022-11-04T19:58:23.401Z,91.94
2022-11-04T20:03:25.223Z,92.15
2022-11-04T20:08:27.230Z,92.32
2022-11-04T20:13:44.428Z,92.40
2022-11-04T20:18:50.697Z,92.49
2022-11-04T20:23:57.613Z,92.70
2022-11-04T20:29:00.448Z,92.97
2022-11-04T20:34:05.114Z,92.79
2022-11-04T20:39:18.329Z,92.94
2022-11-04T20:44:20.295Z,93.43
2022-11-04T20:49:22.283Z,93.74
2022-11-04T20:54:24.187Z,93.89
2022-11-04T20:59:27.617Z,94.48
2022-11-04T21:04:34.799Z,94.82
2022-11-04T21:09:37.955Z,95.29
2022-11-04T21:14:39.827Z,95.36
2022-11-04T21:19:41.730Z,95.73
2022-11-04T21:24:43.569Z,95.84
2022-11-04T21:29:45.578Z,95.85
2022-11-04T21:34:47.430Z,95.97
2022-11-04T21:39:49.240Z,95.89
2022-11-04T21:44:51.049Z,96.27
2022-11-04T21:49:52.864Z,96.15
2022-11-04T21:54:54.633Z,96.47
2022-11-04T21:59:56.428Z,96.64
2022-11-04T22:04:58.242Z,97.26
2022-11-04T22:10:00.095Z,97.56
2022-11-04T22:15:09.094Z,97.60
2022-11-04T22:20:11.293Z,97.74
2022-11-04T22:25:13.159Z,97.79
2022-11-04T22:30:15.009Z,97.82
2022-11-04T22:35:17.079Z,97.65
2022-11-04T22:40:18.997Z,97.35
2022-11-04T22:45:20.834Z,97.13
2022-11-04T22:50:23.098Z,97.14
2022-11-04T22:55:24.886Z,96.78
2022-11-04T23:00:26.729Z,96.79
2022-11-04T23:05:31.709Z,96.67
2022-11-04T23:10:52.293Z,96.58
2022-11-04T23:16:12.704Z,96.44
2022-11-04T23:21:37.020Z,96.53
2022-11-04T23:26:39.000Z,96.63
2022-11-04T23:31:40.979Z,96.61
2022-11-04T23:37:01.633Z,96.62
2022-11-04T23:42:18.886Z,96.87
2022-11-04T23:47:39.260Z,96.82
2022-11-04T23:52:59.555Z,97.16
2022-11-04T23:58:19.977Z,97.24
